Date,TemperatureHighF,TemperatureAvgF,TemperatureLowF,DewpointHighF,DewpointAvgF,DewpointLowF,HumidityHigh,HumidityAvg,HumidityLow,PressureMaxIn,PressureMinIn,WindSpeedMaxMPH,WindSpeedAvgMPH,GustSpeedMaxMPH,PrecipitationSumIn
2013-1-1,30,22,9,20,6,-11,83,50,33,29.47,29.23,20,6,20,0.00
2013-1-2,20,8,-1,0,-12,-20,45,39,37,29.62,29.41,31,5,31,0.00
2013-1-3,21,9,-1,0,-11,-20,44,39,37,29.68,29.53,12,2,12,0.00
2013-1-4,32,19,2,18,4,-15,68,52,44,29.53,29.32,22,5,22,0.00
2013-1-5,33,26,11,19,9,-3,62,47,35,29.88,29.32,26,5,26,0.00
2013-1-6,29,21,10,20,11,-4,79,64,51,29.85,29.53,16,1,16,0.00
2013-1-7,25,19,12,20,8,-2,84,62,44,30.00,29.56,12,1,12,0.00
2013-1-8,37,27,11,23,14,0,87,59,42,29.94,29.77,34,4,34,0.00
2013-1-9,40,30,16,34,22,10,88,71,56,30.00,29.47,17,2,17,0.00
2013-1-10,43,36,26,24,18,12,68,49,39,30.09,29.47,33,6,33,0.16
2013-1-11,38,30,21,21,14,10,62,52,39,30.12,29.85,11,1,11,0.00
2013-1-12,41,38,33,39,33,22,98,84,62,29.85,29.71,6,0,6,0.08
2013-1-13,46,41,37,46,40,36,98,98,98,29.77,29.53,16,2,16,0.00
2013-1-14,53,44,35,52,38,18,98,82,43,29.80,29.47,21,4,21,0.04
2013-1-15,37,33,27,25,18,13,74,54,42,29.91,29.77,11,0,11,0.00
2013-1-16,33,31,28,31,24,13,92,74,51,29.85,29.35,12,1,12,0.00
2013-1-17,38,27,13,31,17,-7,97,69,37,29.74,29.35,22,3,22,0.04
2013-1-18,15,10,4,-7,-11,-16,39,37,35,29.97,29.68,20,3,20,0.00
2013-1-19,36,27,8,21,11,-14,82,52,35,29.94,29.47,31,3,31,0.00
2013-1-20,46,38,23,32,20,2,77,51,32,29.47,29.06,37,9,37,0.16
2013-1-21,24,19,13,3,-4,-8,53,36,32,29.62,29.41,21,5,21,0.00
2013-1-22,16,12,7,5,-4,-10,59,47,43,29.56,29.35,21,1,21,0.00
2013-1-23,7,2,-2,-10,-15,-19,44,44,44,29.62,29.56,24,6,24,0.00
2013-1-24,11,3,-4,-7,-14,-21,44,44,44,29.65,29.47,30,8,30,0.00
2013-1-25,19,10,2,-4,-10,-15,44,40,34,29.74,29.62,19,4,19,0.00
2013-1-26,21,13,7,-3,-9,-14,39,35,33,29.68,29.53,17,2,17,0.00
2013-1-27,24,14,8,-1,-8,-15,39,35,33,29.97,29.68,19,3,19,0.00
2013-1-28,27,17,7,15,-5,-14,76,37,28,29.97,29.65,13,1,13,0.00
2013-1-29,34,26,12,28,17,6,82,71,52,29.80,29.62,10,0,10,0.00
2013-1-30,54,45,33,54,44,28,98,96,82,29.74,29.06,35,7,35,0.31
2013-1-31,56,54,53,55,54,52,98,98,97,29.06,28.59,43,15,43,0.08
2013-2-1,28,22,14,4,-2,-7,37,35,32,29.56,29.23,26,6,26,0.00
2013-2-2,26,19,12,8,-2,-10,55,39,32,29.74,29.56,17,4,17,0.00
2013-2-3,28,24,20,16,11,6,78,58,44,29.59,29.21,14,1,14,0.00
2013-2-4,28,21,15,7,1,-8,60,43,33,29.38,29.15,35,5,35,0.00
2013-2-5,24,15,7,-2,-8,-15,41,35,29,29.56,29.38,23,2,23,0.00
2013-2-6,35,22,12,16,3,-8,53,43,33,29.80,29.44,17,3,17,0.00
2013-2-7,18,11,8,-8,-13,-18,35,32,28,30.09,29.80,19,1,19,0.00
2013-2-8,19,12,8,12,-5,-18,75,50,29,30.09,29.41,17,3,17,0.00
2013-2-9,16,12,10,12,6,3,82,77,73,29.62,29.21,26,7,26,0.00
2013-2-10,33,18,9,25,10,-1,81,71,54,29.88,29.62,18,2,18,0.00
2013-2-11,39,26,6,37,20,-4,98,78,56,29.85,29.12,21,1,21,0.28
2013-2-12,44,36,32,36,27,21,98,73,44,29.29,29.03,26,4,26,0.00
2013-2-13,44,36,32,21,18,14,57,47,38,29.32,29.26,17,3,17,0.00
2013-2-14,40,32,23,18,15,11,66,51,35,29.53,29.23,17,1,17,0.00
2013-2-15,45,33,24,31,23,12,90,67,48,29.53,29.44,29,3,29,0.00
2013-2-16,36,32,25,32,28,20,95,86,71,29.47,29.29,11,0,11,0.00
2013-2-17,25,21,18,20,8,0,82,57,43,29.29,28.67,30,8,30,0.00
2013-2-18,30,20,12,5,-1,-6,44,38,32,29.50,28.91,37,10,37,0.00
2013-2-19,42,29,13,40,11,-8,96,49,29,29.62,29.15,27,3,27,0.31
2013-2-20,43,36,27,42,23,8,98,63,41,29.15,28.94,36,6,36,0.24
2013-2-21,31,26,21,21,10,2,66,50,42,29.62,29.15,17,4,17,0.00
2013-2-22,39,31,24,20,14,12,63,51,38,29.88,29.62,17,1,17,0.00
2013-2-23,36,30,22,29,22,12,87,72,60,29.85,29.56,17,2,17,0.00
2013-2-24,32,30,27,30,27,25,92,90,83,29.56,29.32,11,0,11,0.00
2013-2-25,39,29,21,25,18,13,90,67,40,29.74,29.41,12,0,12,0.00
2013-2-26,42,33,25,26,21,17,82,63,42,29.88,29.74,14,1,14,0.00
2013-2-27,38,32,25,32,25,18,95,77,53,29.80,29.23,26,5,26,0.12
2013-2-28,41,38,32,40,38,32,98,98,95,29.24,29.06,26,3,26,0.51
2013-3-1,36,33,32,33,30,28,98,90,76,29.21,29.06,12,1,12,0.04
2013-3-2,39,34,31,32,29,23,94,83,54,29.18,29.12,12,1,12,0.12
2013-3-3,41,36,33,39,30,24,98,78,52,29.15,29.03,12,1,12,0.51
2013-3-4,34,33,31,32,25,20,93,74,60,29.18,29.00,17,4,17,0.00
2013-3-5,45,37,34,38,31,25,97,82,50,29.62,29.18,16,1,16,0.51
2013-3-6,38,35,32,32,24,18,91,66,51,29.80,29.62,26,8,26,0.51
2013-3-7,36,34,32,20,18,16,60,52,45,29.74,29.59,21,6,21,0.00
2013-3-8,46,36,30,21,17,15,69,47,32,29.71,29.56,20,6,20,0.00
2013-3-9,48,35,28,20,17,14,66,49,31,29.88,29.68,16,2,16,0.00
2013-3-10,41,32,23,27,21,16,80,64,43,29.94,29.83,12,2,12,0.00
2013-3-11,43,38,34,39,30,26,94,74,54,29.85,29.71,22,6,22,0.00
2013-3-12,48,44,41,47,42,39,98,92,77,29.71,29.29,26,5,26,0.47
2013-3-13,48,45,40,48,40,24,98,86,51,29.29,29.21,26,2,26,0.08
2013-3-15,36,32,25,10,7,4,52,34,30,29.26,29.15,16,4,16,0.00
2013-3-16,37,28,22,16,10,2,69,48,30,29.41,29.12,17,2,17,0.00
2013-3-17,32,24,17,6,1,-8,54,38,30,29.80,29.38,26,4,26,0.00
2013-3-18,36,24,10,9,0,-11,46,34,24,29.91,29.77,17,2,17,0.00
2013-3-19,30,28,23,25,19,8,87,71,44,29.77,29.15,26,6,26,0.00
2013-3-20,36,27,19,20,16,13,87,65,41,29.21,29.09,22,5,22,0.00
2013-3-21,39,30,18,16,12,6,78,50,33,29.23,29.09,17,5,17,0.00
2013-3-22,40,30,21,18,12,9,80,49,32,29.12,29.06,20,3,20,0.08
2013-3-23,40,32,24,18,13,7,52,45,37,29.09,28.94,27,9,27,0.12
2013-3-24,46,37,31,21,18,15,60,46,35,29.23,29.06,16,3,16,0.00
2013-3-25,45,36,27,29,21,17,82,57,39,29.21,29.03,16,2,16,0.00
2013-3-26,48,39,30,22,19,16,60,45,32,29.15,28.97,17,3,17,0.00
2013-3-27,43,37,32,34,26,18,91,66,46,29.26,29.09,17,2,17,0.12
2013-3-28,51,41,34,38,30,23,94,68,37,29.35,29.23,12,1,12,0.00
2013-3-29,55,47,34,32,25,21,68,43,35,29.38,29.32,17,2,17,0.00
2013-3-30,56,42,31,30,21,10,80,47,25,29.47,29.35,16,2,16,0.00
2013-3-31,53,40,25,32,20,11,69,48,26,29.47,29.23,30,3,30,0.00
2013-4-1,51,42,33,44,36,15,97,78,46,29.23,28.88,18,5,18,0.47
2013-4-2,39,32,26,15,11,8,54,41,31,29.18,29.03,31,7,31,0.04
2013-4-3,43,34,28,14,10,7,53,37,29,29.35,29.12,37,10,37,0.00
2013-4-4,52,38,29,26,13,6,60,37,21,29.53,29.32,26,8,26,0.00
2013-4-5,57,44,36,27,23,16,60,44,29,29.32,29.03,26,6,26,0.00
2013-4-6,42,34,27,17,7,2,44,32,23,29.68,29.15,26,6,26,0.00
2013-4-7,47,37,25,35,18,2,73,47,34,29.68,29.32,41,7,41,0.00
2013-4-8,63,49,36,42,31,24,90,54,28,29.50,29.23,20,4,20,0.00
2013-4-9,45,42,38,44,38,26,96,87,58,29.50,29.23,12,1,12,0.28
2013-4-10,58,46,38,47,41,32,98,84,43,29.35,29.23,17,3,17,0.16
2013-4-11,56,44,36,44,33,9,98,71,26,29.53,29.20,17,1,17,0.00
2013-4-12,38,35,33,32,19,9,93,56,32,29.59,29.23,15,1,15,0.12
2013-4-13,48,38,33,41,33,30,97,82,51,29.26,29.15,8,0,8,0.12
2013-4-14,50,43,36,42,36,29,95,77,52,29.50,29.23,11,0,11,0.12
2013-4-15,54,37,31,36,29,25,84,73,41,29.77,29.50,20,2,20,0.00
2013-4-16,56,47,40,46,36,29,93,67,38,29.77,29.29,29,8,29,0.00
2013-4-17,63,52,40,47,28,16,90,44,25,29.68,29.26,25,2,25,0.00
2013-4-18,51,43,32,33,22,14,59,44,28,29.80,29.50,18,1,18,0.00
2013-4-19,67,55,46,57,49,33,98,81,56,29.50,29.03,38,8,38,0.00
2013-4-20,59,53,43,59,41,19,98,68,30,29.44,28.91,35,6,35,0.31
2013-4-21,53,42,33,22,16,10,44,35,26,29.97,29.44,17,3,17,0.00
2013-4-22,54,40,28,25,17,9,68,42,26,30.06,29.88,20,3,20,0.00
2013-4-23,45,37,28,41,31,21,95,78,57,29.88,29.15,14,2,14,0.00
2013-4-24,58,49,42,54,45,41,98,88,68,17.72,17.72,16,1,16,0.20
2013-4-25,66,54,43,56,34,18,97,55,25,17.72,17.72,26,3,26,0.04
2013-4-26,62,48,34,32,25,20,66,42,27,17.72,17.72,22,3,22,0.00
2013-4-27,62,46,32,37,31,24,87,58,32,17.72,17.72,17,2,17,0.00
2013-4-28,69,51,35,46,31,25,91,52,24,17.72,17.72,22,2,22,0.00
2013-4-29,66,50,35,41,34,28,85,57,25,17.72,17.72,21,2,21,0.00
2013-4-30,70,52,36,49,34,26,94,57,24,17.72,17.72,20,2,20,0.00
2013-5-1,71,54,34,40,29,20,83,45,20,17.72,17.72,17,2,17,0.00
2013-5-2,65,51,39,44,34,27,87,54,34,17.72,17.72,20,2,20,0.00
2013-5-3,70,51,37,40,35,30,85,56,33,17.72,17.72,16,3,16,0.00
2013-5-4,68,49,36,41,33,27,88,59,25,17.72,17.72,22,2,22,0.00
2013-5-5,66,53,40,36,32,29,80,47,30,17.72,17.72,12,4,12,0.00
2013-5-6,68,49,34,47,37,31,94,69,33,17.72,17.72,22,3,22,0.00
2013-5-7,75,56,44,56,45,38,98,73,28,17.72,17.72,26,4,26,0.00
2013-5-8,74,60,47,61,51,45,96,75,41,17.72,17.72,21,3,21,0.00
2013-5-9,59,55,52,58,54,51,98,95,91,17.72,17.72,12,1,12,0.20
2013-5-10,73,59,50,63,51,46,98,78,43,17.72,17.72,14,2,14,0.00
2013-5-11,60,56,50,59,54,49,98,95,84,17.72,17.72,22,3,22,0.20
2013-5-12,63,57,49,62,55,41,98,94,71,17.72,17.72,12,0,12,0.08
2013-5-13,60,50,41,41,29,23,89,47,28,17.72,17.72,26,6,26,0.00
2013-5-14,61,50,42,32,27,24,59,43,29,17.72,17.72,17,1,17,0.00
2013-5-15,65,51,38,48,33,23,97,57,23,17.72,17.72,22,5,22,0.24
2013-5-16,76,60,49,58,45,33,98,64,24,17.72,17.72,20,2,20,0.00
2013-5-17,65,55,45,42,34,29,70,47,32,17.72,17.72,18,2,18,0.00
2013-5-18,66,51,39,44,36,32,87,60,33,17.72,17.72,16,2,16,0.00
2013-5-19,66,52,42,47,42,38,93,71,40,17.72,17.72,12,2,12,0.00
2013-5-20,72,58,50,63,53,47,98,87,51,17.72,17.72,16,1,16,0.79
2013-5-21,55,51,48,53,50,48,98,97,93,17.72,17.72,12,0,12,0.75
2013-5-22,56,51,48,56,50,47,98,95,84,17.72,17.72,10,0,10,0.59
2013-5-23,63,57,48,62,55,47,98,93,82,17.72,17.72,17,2,17,0.00
2013-5-24,63,59,50,62,59,50,98,98,95,17.72,17.72,22,2,22,1.30
2013-5-25,52,50,48,52,49,48,98,98,98,17.72,17.72,15,2,15,0.16
2013-6-16,62,61,59,54,52,52,78,75,70,0.00,0.00,0,0,0,0.16
2013-6-17,82,65,55,62,56,49,95,76,34,0.00,0.00,17,1,17,0.08
2013-6-18,69,62,57,63,54,45,97,76,44,0.00,0.00,8,0,8,0.00
2013-8-27,85,72,63,63,60,58,90,68,42,29.56,0.00,11,0,11,0.00
2013-8-28,84,69,61,70,61,56,96,78,41,29.65,29.53,0,0,0,0.16
2013-8-29,67,63,55,64,58,51,98,85,64,29.77,29.65,0,0,0,0.00
2013-8-30,78,65,53,63,58,51,97,78,49,29.65,29.41,12,2,12,0.00
2013-8-31,82,70,64,73,65,61,97,86,57,29.47,29.41,8,0,8,0.43
2013-9-1,82,72,67,75,66,58,97,84,44,29.59,29.41,12,0,12,0.04
2013-9-2,68,65,62,67,64,61,98,97,93,29.59,29.41,17,1,17,2.32
2013-9-14,62,57,53,51,50,48,83,78,65,29.62,0.00,5,0,5,2.32
2013-9-15,68,57,48,54,46,39,95,72,36,29.74,29.62,14,2,14,2.32
2013-9-16,65,55,44,58,48,31,96,78,53,29.85,29.56,12,0,12,2.32
2013-9-17,63,50,40,45,36,30,86,62,35,29.97,29.85,11,0,11,2.32
2013-9-18,71,55,42,57,42,37,95,67,31,29.91,29.74,15,2,15,2.32
2013-9-19,75,58,45,58,45,41,95,68,32,29.74,29.65,12,1,12,2.32
2013-9-20,51,49,47,46,46,45,93,89,83,29.68,29.65,0,0,0,0.00
2013-9-23,54,51,50,39,35,33,66,55,46,29.53,29.50,12,1,12,0.00
2013-9-24,54,50,44,44,39,34,80,66,52,29.53,29.44,16,1,16,0.00
2013-9-25,61,53,46,44,41,38,81,66,46,29.59,29.47,11,0,11,0.00
2013-9-26,64,55,46,48,44,41,90,68,44,29.77,29.59,11,0,11,0.00
2013-9-27,69,59,52,52,47,42,88,67,39,29.85,29.77,12,0,12,0.00
2013-9-28,73,57,48,58,47,40,96,75,34,29.94,29.85,10,0,10,0.00
2013-9-29,70,53,43,60,43,35,97,74,32,29.88,29.77,12,1,12,0.04
2013-9-30,51,47,43,49,46,42,96,95,93,29.77,29.71,0,0,3,0.00
2013-10-6,59,53,50,48,38,30,93,60,36,29.88,29.85,11,0,11,0.12
2013-10-7,67,59,49,66,58,48,98,97,93,29.85,29.47,29,4,29,0.28
2013-10-8,64,54,42,63,42,30,98,66,36,30.00,29.47,17,1,17,0.00
2013-10-9,61,47,38,47,35,31,91,66,36,30.09,29.97,15,1,15,0.00
2013-10-10,63,43,36,51,37,33,94,82,35,29.97,29.83,12,0,12,0.00
2013-10-11,68,55,45,58,47,41,97,78,37,29.83,29.74,8,0,8,0.00
2013-10-12,60,53,48,54,46,40,96,78,53,30.03,29.80,8,0,8,0.00
2013-10-13,59,52,42,48,41,34,89,69,42,30.09,30.00,12,1,12,0.00
2013-10-14,62,50,37,51,41,35,96,74,44,30.00,29.85,17,2,17,0.00
2013-10-15,67,56,48,58,47,42,96,76,44,29.91,29.83,10,0,10,0.00
2013-10-16,60,55,51,55,50,47,97,87,63,29.85,29.71,16,1,16,0.00
2013-10-29,40,32,28,21,19,12,74,58,32,29.94,29.88,0,0,0,0.00
2013-10-30,49,35,26,32,22,17,87,63,31,29.88,29.71,15,1,15,0.00
2013-10-31,58,43,27,58,39,22,98,84,62,29.80,29.35,22,2,22,0.31
2013-11-1,62,59,55,61,58,46,98,94,65,29.35,28.97,31,10,31,0.39
2013-11-2,64,51,42,50,42,35,95,75,35,29.23,29.15,15,3,15,0.00